Terminal Aerodrome Forecast
Issued by NWS

Current Version | Previous Version | Text Only | Print | Product List | Glossary On
Versions: 1 2 3 4 5 6 7 8 9 10 11 12 13 14 15 16 17 18 19
000
FTUS45 KTFX 181100
TAFGTF
TAF
KGTF 181137Z 1812/1912 20013KT P6SM BKN100
     FM181800 21014G28KT P6SM BKN150
     FM190300 22014KT P6SM SCT150=

USA.gov is the U.S. government's official web portal to all federal, state and local government web resources and services.